Time;durP1;ratioP1;P1;durP2;ratioP2;P2;SDS_P1;SDS_P2;PMS_P1;PMS_P2;Temp;Humidity;BMP_temperature;BMP_pressure;BME280_temperature;BME280_humidity;BME280_pressure;Samples;Min_cycle;Max_cycle;Signal;HPM_P1;HPM_P2
2023/03/29 00:01:50;;;;;;;5.15;2.20;;;11.50;79.10;;;;;;4957801;29;20027;-87
2023/03/29 00:04:18;;;;;;;4.25;1.77;;;11.50;79.40;;;;;;4947929;29;20031;-87
2023/03/29 00:06:46;;;;;;;4.38;1.70;;;11.50;79.30;;;;;;4938930;29;20024;-86
2023/03/29 00:09:15;;;;;;;4.55;1.50;;;11.50;79.40;;;;;;4939030;29;20412;-86
2023/03/29 00:11:41;;;;;;;3.58;1.80;;;11.50;79.50;;;;;;4938597;29;20068;-86
2023/03/29 00:14:07;;;;;;;4.57;1.70;;;11.50;79.30;;;;;;4958107;29;20031;-87
2023/03/29 00:16:32;;;;;;;3.95;1.50;;;11.50;79.50;;;;;;4959252;29;20035;-86
2023/03/29 00:18:58;;;;;;;6.10;1.80;;;11.50;79.30;;;;;;4959346;29;20023;-86
2023/03/29 00:21:24;;;;;;;3.45;1.50;;;11.50;79.40;;;;;;4958309;29;20022;-85
2023/03/29 00:23:49;;;;;;;3.92;1.75;;;11.50;79.50;;;;;;4941993;29;20027;-86
2023/03/29 00:26:15;;;;;;;4.70;1.63;;;11.50;79.50;;;;;;4942782;29;20019;-86
2023/03/29 00:28:40;;;;;;;4.07;1.75;;;11.50;79.40;;;;;;4958301;29;20031;-86
2023/03/29 00:31:12;;;;;;;5.53;1.77;;;11.50;79.60;;;;;;4960627;29;20020;-88
2023/03/29 00:33:38;;;;;;;3.40;1.48;;;11.50;79.60;;;;;;4956976;29;20050;-88
2023/03/29 00:36:04;;;;;;;3.78;1.40;;;11.50;79.60;;;;;;4941845;29;20035;-87
2023/03/29 00:38:30;;;;;;;5.13;1.75;;;11.50;79.60;;;;;;4941998;29;20034;-87
2023/03/29 00:40:56;;;;;;;4.00;1.50;;;11.40;79.40;;;;;;4957363;29;20024;-87
2023/03/29 00:43:22;;;;;;;3.42;1.50;;;11.50;79.70;;;;;;4960559;29;20085;-86
2023/03/29 00:45:47;;;;;;;4.03;1.60;;;11.50;79.60;;;;;;4959443;29;20066;-87
2023/03/29 00:48:20;;;;;;;4.40;1.70;;;11.50;79.60;;;;;;4959358;28;20081;-86
2023/03/29 00:50:57;;;;;;;4.22;1.70;;;11.50;79.60;;;;;;4959567;29;20082;-86
2023/03/29 00:53:52;;;;;;;4.13;1.60;;;11.50;79.70;;;;;;4959774;29;20023;-87
2023/03/29 00:56:23;;;;;;;4.53;1.70;;;11.50;79.60;;;;;;4957707;29;20067;-87
2023/03/29 00:59:08;;;;;;;3.75;1.60;;;11.40;79.70;;;;;;4958923;29;20118;-86
2023/03/29 01:01:53;;;;;;;4.10;1.80;;;11.40;79.50;;;;;;4958004;29;20023;-87
2023/03/29 01:04:35;;;;;;;4.25;1.77;;;11.40;79.50;;;;;;4958117;29;20118;-86
2023/03/29 01:07:12;;;;;;;4.35;1.70;;;11.40;79.70;;;;;;4958289;29;20037;-87
2023/03/29 01:09:41;;;;;;;5.97;1.85;;;11.50;79.60;;;;;;4958219;29;20074;-86
2023/03/29 01:12:15;;;;;;;3.17;1.63;;;11.40;79.60;;;;;;4958172;29;20038;-87
2023/03/29 01:14:49;;;;;;;5.93;1.60;;;11.40;79.60;;;;;;4957680;29;20034;-88
2023/03/29 01:17:15;;;;;;;4.68;1.58;;;11.40;79.50;;;;;;4957743;29;20110;-86
2023/03/29 01:19:46;;;;;;;4.68;1.70;;;11.40;79.60;;;;;;4957354;29;20050;-86
2023/03/29 01:22:29;;;;;;;3.10;1.52;;;11.40;79.60;;;;;;4957110;29;20019;-87
2023/03/29 01:25:25;;;;;;;4.10;1.70;;;11.40;79.50;;;;;;4956945;29;20118;-87
2023/03/29 01:28:02;;;;;;;3.40;1.63;;;11.40;79.70;;;;;;4956105;29;20047;-86
2023/03/29 01:30:48;;;;;;;3.75;1.40;;;11.40;79.50;;;;;;4956318;29;20492;-86
2023/03/29 01:33:22;;;;;;;3.53;1.33;;;11.40;79.50;;;;;;4956650;29;20492;-87
2023/03/29 01:35:53;;;;;;;4.05;1.92;;;11.40;79.80;;;;;;4956085;29;20035;-86
2023/03/29 01:39:09;;;;;;;4.18;1.63;;;11.40;79.50;;;;;;4955787;29;20030;-87
2023/03/29 01:42:19;;;;;;;3.65;1.45;;;11.40;79.50;;;;;;4931175;28;20031;-88
2023/03/29 01:44:55;;;;;;;3.13;1.52;;;11.40;79.70;;;;;;4955764;29;20031;-86
2023/03/29 01:47:59;;;;;;;5.18;1.60;;;11.40;79.50;;;;;;4955686;29;20074;-87
2023/03/29 01:50:33;;;;;;;3.97;1.70;;;11.40;79.50;;;;;;4955188;29;20027;-86
2023/03/29 01:53:08;;;;;;;4.45;1.52;;;11.40;79.50;;;;;;4956986;29;20027;-86
2023/03/29 01:55:38;;;;;;;4.20;1.70;;;11.40;79.50;;;;;;4955653;29;20067;-86
2023/03/29 01:58:06;;;;;;;3.65;1.55;;;11.40;79.40;;;;;;4957046;28;20126;-86
2023/03/29 02:00:33;;;;;;;3.63;1.52;;;11.40;79.60;;;;;;4956195;28;20026;-85
2023/03/29 02:03:05;;;;;;;2.78;1.30;;;11.40;79.60;;;;;;4957123;29;20074;-86
2023/03/29 02:05:32;;;;;;;3.88;1.45;;;11.40;79.40;;;;;;4957529;29;20023;-86
2023/03/29 02:08:00;;;;;;;3.97;1.65;;;11.40;79.50;;;;;;4958184;29;20035;-86
2023/03/29 02:10:26;;;;;;;2.83;1.50;;;11.30;79.40;;;;;;4958661;29;20444;-86
2023/03/29 02:12:52;;;;;;;3.83;1.55;;;11.30;79.40;;;;;;4958765;29;20062;-86
2023/03/29 02:15:19;;;;;;;3.40;1.50;;;11.40;79.60;;;;;;4960008;28;20027;-86
2023/03/29 02:17:46;;;;;;;3.42;1.55;;;11.40;79.60;;;;;;4958242;29;20027;-88
2023/03/29 02:20:23;;;;;;;3.65;1.60;;;11.40;79.60;;;;;;4953151;29;20745;-84
2023/03/29 02:23:13;;;;;;;4.00;1.75;;;11.40;79.70;;;;;;4959131;28;20082;-86
2023/03/29 02:25:39;;;;;;;3.10;1.60;;;11.30;79.60;;;;;;4957770;29;20035;-86
2023/03/29 02:28:05;;;;;;;4.00;1.70;;;11.30;79.50;;;;;;4972412;28;20031;-85
2023/03/29 02:30:54;;;;;;;4.13;1.65;;;11.30;79.60;;;;;;4956929;29;20023;-86
2023/03/29 02:33:30;;;;;;;3.45;1.70;;;11.30;79.30;;;;;;4956849;29;20055;-86
2023/03/29 02:36:00;;;;;;;5.03;2.05;;;11.30;79.50;;;;;;4957161;29;20047;-86
2023/03/29 02:38:26;;;;;;;3.80;1.55;;;11.30;79.40;;;;;;4956861;29;20090;-84
2023/03/29 02:40:54;;;;;;;4.30;1.92;;;11.30;79.40;;;;;;4956768;29;20027;-85
2023/03/29 02:43:21;;;;;;;4.68;1.80;;;11.30;79.40;;;;;;4956599;29;20102;-85
2023/03/29 02:45:47;;;;;;;3.75;1.70;;;11.30;79.40;;;;;;4957748;28;20753;-86
2023/03/29 02:48:17;;;;;;;3.58;1.65;;;11.30;79.30;;;;;;4956186;29;20034;-86
2023/03/29 02:50:46;;;;;;;3.85;1.60;;;11.30;79.40;;;;;;4955846;29;20035;-86
2023/03/29 02:53:31;;;;;;;3.83;1.70;;;11.30;79.40;;;;;;4956311;29;20085;-85
2023/03/29 02:55:56;;;;;;;3.58;1.40;;;11.30;79.40;;;;;;4956247;29;20046;-87
2023/03/29 02:58:25;;;;;;;3.28;1.55;;;11.30;79.40;;;;;;4956322;29;20589;-86
2023/03/29 03:00:51;;;;;;;3.75;1.60;;;11.30;79.50;;;;;;4956221;29;20531;-86
2023/03/29 03:03:16;;;;;;;3.67;1.50;;;11.30;79.50;;;;;;4955721;29;20035;-86
2023/03/29 03:05:42;;;;;;;3.30;1.33;;;11.30;79.50;;;;;;4956110;29;20106;-86
2023/03/29 03:08:08;;;;;;;3.58;1.50;;;11.30;79.50;;;;;;4958409;29;20031;-87
2023/03/29 03:10:34;;;;;;;3.80;1.95;;;11.30;79.50;;;;;;4962105;28;20051;-87
2023/03/29 03:13:00;;;;;;;4.07;1.70;;;11.30;79.60;;;;;;4962682;29;20086;-87
2023/03/29 03:15:26;;;;;;;2.95;1.55;;;11.30;79.50;;;;;;4963936;29;20023;-88
2023/03/29 03:17:52;;;;;;;3.70;1.60;;;11.30;79.60;;;;;;4962708;29;20097;-86
2023/03/29 03:20:20;;;;;;;3.55;1.45;;;11.30;79.60;;;;;;4963315;28;20106;-87
2023/03/29 03:22:47;;;;;;;2.85;1.58;;;11.30;79.70;;;;;;4962674;29;20114;-87
2023/03/29 03:25:15;;;;;;;3.83;1.77;;;11.30;79.60;;;;;;4961466;29;20410;-86
2023/03/29 03:27:41;;;;;;;3.55;1.42;;;11.30;79.60;;;;;;4961969;29;20114;-86
2023/03/29 03:30:07;;;;;;;3.38;1.70;;;11.30;80.10;;;;;;4961398;29;20109;-86
2023/03/29 03:32:34;;;;;;;3.33;1.65;;;11.30;79.60;;;;;;4957958;29;20027;-86
2023/03/29 03:34:59;;;;;;;4.15;1.60;;;11.30;79.50;;;;;;4956226;29;20027;-86
2023/03/29 03:37:26;;;;;;;2.15;1.27;;;11.30;79.60;;;;;;4955185;29;20027;-86
2023/03/29 03:39:52;;;;;;;4.57;1.92;;;11.30;79.60;;;;;;4955888;29;20102;-86
2023/03/29 03:42:18;;;;;;;2.28;1.30;;;11.30;79.40;;;;;;4955507;29;20071;-86
2023/03/29 03:44:43;;;;;;;3.60;1.58;;;11.30;79.60;;;;;;4954892;29;20034;-87
2023/03/29 03:47:09;;;;;;;3.78;1.63;;;11.30;79.70;;;;;;4957166;29;20027;-86
2023/03/29 03:49:35;;;;;;;3.38;1.50;;;11.30;79.70;;;;;;4958386;28;20431;-87
2023/03/29 03:52:01;;;;;;;3.92;1.50;;;11.20;79.60;;;;;;4954831;29;20023;-84
2023/03/29 03:54:26;;;;;;;3.65;1.60;;;11.30;79.70;;;;;;4953650;29;20117;-86
2023/03/29 03:56:51;;;;;;;2.60;1.50;;;11.20;79.70;;;;;;4953918;29;20030;-81
2023/03/29 03:59:18;;;;;;;4.10;1.52;;;11.20;79.50;;;;;;4952924;28;20031;-86
2023/03/29 04:01:44;;;;;;;2.88;1.52;;;11.20;79.60;;;;;;4965812;28;20115;-83
2023/03/29 04:04:10;;;;;;;3.38;1.60;;;11.20;79.60;;;;;;4954808;29;20428;-84
2023/03/29 04:06:37;;;;;;;4.03;2.08;;;11.20;79.60;;;;;;4954674;29;20575;-81
2023/03/29 04:09:03;;;;;;;4.13;2.00;;;11.30;79.60;;;;;;4955220;29;20078;-83
2023/03/29 04:11:29;;;;;;;4.90;1.98;;;11.20;79.50;;;;;;4952966;29;20031;-83
2023/03/29 04:13:56;;;;;;;4.15;1.92;;;11.20;79.50;;;;;;4953476;29;20023;-81
2023/03/29 04:16:22;;;;;;;3.35;1.67;;;11.20;79.50;;;;;;4953696;29;20031;-83
2023/03/29 04:18:48;;;;;;;3.13;1.70;;;11.10;79.30;;;;;;4946265;29;20137;-83
2023/03/29 04:21:16;;;;;;;3.47;1.70;;;11.20;79.60;;;;;;4944713;29;20469;-84
2023/03/29 04:23:42;;;;;;;3.78;1.83;;;11.30;79.70;;;;;;4935262;29;20031;-86
2023/03/29 04:26:11;;;;;;;4.80;1.80;;;11.20;79.60;;;;;;4935826;29;20031;-86
2023/03/29 04:28:42;;;;;;;4.05;1.80;;;11.20;79.70;;;;;;4946208;29;20031;-84
2023/03/29 04:41:44;;;;;;;3.45;1.80;;;11.20;79.60;;;;;;4954354;29;20026;-81
2023/03/29 04:48:01;;;;;;;3.85;1.70;;;11.20;79.60;;;;;;4866070;29;20111;-84
2023/03/29 04:50:27;;;;;;;3.83;1.83;;;11.20;79.70;;;;;;4877614;29;20028;-80
2023/03/29 04:53:07;;;;;;;3.92;1.80;;;11.20;79.70;;;;;;5055106;23;20046;-86
2023/03/29 05:03:57;;;;;;;3.70;1.63;;;11.20;79.60;;;;;;4993906;28;20054;-86
2023/03/29 05:06:23;;;;;;;3.28;1.60;;;11.20;79.60;;;;;;4995802;28;20391;-86
2023/03/29 05:08:48;;;;;;;4.15;2.10;;;11.20;79.70;;;;;;4995133;28;20109;-86
2023/03/29 05:11:14;;;;;;;6.50;2.10;;;11.20;79.30;;;;;;5000928;28;20038;-85
2023/03/29 05:13:39;;;;;;;5.18;2.45;;;11.20;78.90;;;;;;4994295;28;20022;-86
2023/03/29 05:16:06;;;;;;;5.47;2.13;;;11.20;78.50;;;;;;4992626;28;20029;-86
2023/03/29 05:18:32;;;;;;;4.40;2.30;;;11.20;78.50;;;;;;4995027;28;20029;-84
2023/03/29 05:20:58;;;;;;;4.78;2.00;;;11.20;78.60;;;;;;4991651;28;20023;-86
2023/03/29 05:23:24;;;;;;;5.60;2.00;;;11.20;78.80;;;;;;4992340;28;20027;-86
2023/03/29 05:25:51;;;;;;;5.30;2.00;;;11.20;78.90;;;;;;4992111;28;20027;-86
2023/03/29 05:28:18;;;;;;;4.85;1.80;;;11.20;79.00;;;;;;4995361;28;20026;-86
2023/03/29 05:30:43;;;;;;;3.95;1.73;;;11.20;79.00;;;;;;4994582;28;20026;-87
2023/03/29 05:33:10;;;;;;;3.67;1.90;;;11.20;79.10;;;;;;4994531;28;20093;-86
2023/03/29 05:35:36;;;;;;;4.53;1.77;;;11.20;79.10;;;;;;4996079;28;20026;-86
2023/03/29 05:38:03;;;;;;;3.70;1.90;;;11.20;79.40;;;;;;4996752;28;20114;-86
2023/03/29 05:40:30;;;;;;;3.78;1.88;;;11.20;79.30;;;;;;4997023;28;20023;-86
2023/03/29 05:42:56;;;;;;;4.22;1.85;;;11.20;79.30;;;;;;4996657;28;20018;-86
2023/03/29 05:45:22;;;;;;;5.32;1.98;;;11.20;79.40;;;;;;4996641;28;20066;-86
2023/03/29 05:47:47;;;;;;;3.80;1.83;;;11.20;79.30;;;;;;4998306;28;20501;-86
2023/03/29 05:50:13;;;;;;;3.92;2.00;;;11.20;79.40;;;;;;4996118;28;20026;-86
2023/03/29 05:52:39;;;;;;;4.22;1.75;;;11.20;79.30;;;;;;4995315;28;20033;-85
2023/03/29 05:55:06;;;;;;;3.88;1.80;;;11.20;79.30;;;;;;4996237;28;20027;-88
2023/03/29 05:57:36;;;;;;;3.67;1.80;;;11.20;79.30;;;;;;4995974;28;20030;-85
2023/03/29 06:00:18;;;;;;;3.92;1.98;;;11.20;79.30;;;;;;4994964;28;20502;-86
2023/03/29 06:02:44;;;;;;;4.63;2.00;;;11.20;79.30;;;;;;4997520;28;20122;-86
2023/03/29 06:05:09;;;;;;;4.28;1.88;;;11.20;79.30;;;;;;4996162;28;20058;-86
2023/03/29 06:07:37;;;;;;;5.30;2.05;;;11.20;79.30;;;;;;4996953;28;20023;-86
2023/03/29 06:10:03;;;;;;;2.88;1.58;;;11.20;79.30;;;;;;4994823;28;20065;-86
2023/03/29 06:12:29;;;;;;;4.00;2.10;;;11.20;79.40;;;;;;4994344;28;20030;-86
2023/03/29 06:14:57;;;;;;;4.50;1.80;;;11.20;79.40;;;;;;4995313;28;20034;-86
2023/03/29 06:17:22;;;;;;;3.63;1.77;;;11.20;79.50;;;;;;4995233;28;20038;-86
2023/03/29 06:19:48;;;;;;;3.45;1.90;;;11.20;79.50;;;;;;4996494;28;20027;-86
2023/03/29 06:22:13;;;;;;;3.67;1.58;;;11.20;79.40;;;;;;4994405;28;20022;-86
2023/03/29 06:24:39;;;;;;;3.83;1.63;;;11.20;79.60;;;;;;4994362;28;20030;-87
2023/03/29 06:27:04;;;;;;;5.00;2.15;;;11.20;79.60;;;;;;4994496;28;20049;-86
2023/03/29 06:29:30;;;;;;;2.72;1.60;;;11.20;79.60;;;;;;4994476;28;20069;-86
2023/03/29 06:31:56;;;;;;;3.30;1.75;;;11.20;79.60;;;;;;4994262;28;20045;-86
2023/03/29 06:34:21;;;;;;;4.00;1.75;;;11.20;79.60;;;;;;4994214;28;20045;-86
2023/03/29 06:36:49;;;;;;;3.78;1.65;;;11.20;79.50;;;;;;4994496;28;20054;-86
2023/03/29 06:39:15;;;;;;;3.63;1.80;;;11.20;79.70;;;;;;5002581;28;20045;-87
2023/03/29 06:41:40;;;;;;;3.10;1.75;;;11.20;79.50;;;;;;5002013;28;20022;-86
2023/03/29 06:44:06;;;;;;;2.85;1.67;;;11.20;79.60;;;;;;5003426;28;20033;-87
2023/03/29 06:46:31;;;;;;;3.35;1.80;;;11.20;79.60;;;;;;5001969;28;20038;-87
2023/03/29 06:48:57;;;;;;;2.92;1.63;;;11.20;79.50;;;;;;5002245;28;20445;-87
2023/03/29 06:51:22;;;;;;;3.15;1.67;;;11.20;79.50;;;;;;5002601;28;20494;-86
2023/03/29 06:53:48;;;;;;;3.13;1.73;;;11.20;79.90;;;;;;5001177;28;20014;-86
2023/03/29 06:56:13;;;;;;;3.25;1.70;;;11.20;79.70;;;;;;5000995;28;20026;-87
2023/03/29 06:58:39;;;;;;;2.92;1.70;;;11.20;79.40;;;;;;5002526;28;20053;-85
2023/03/29 07:01:05;;;;;;;4.63;1.90;;;11.20;79.70;;;;;;5000481;28;20084;-86
2023/03/29 07:03:33;;;;;;;3.03;1.67;;;11.20;79.50;;;;;;5000248;28;20037;-86
2023/03/29 07:06:02;;;;;;;2.92;1.63;;;11.20;79.70;;;;;;4999693;28;20117;-86
2023/03/29 07:08:30;;;;;;;3.75;1.70;;;11.20;79.80;;;;;;4999226;28;20499;-86
2023/03/29 07:10:57;;;;;;;4.10;1.83;;;11.20;79.80;;;;;;4998964;28;20121;-86
2023/03/29 07:13:25;;;;;;;3.80;1.85;;;11.20;79.80;;;;;;4998543;28;20030;-86
2023/03/29 07:15:50;;;;;;;2.88;1.40;;;11.20;79.80;;;;;;4998235;28;20037;-86
2023/03/29 07:18:17;;;;;;;3.72;1.60;;;11.20;79.90;;;;;;4998595;28;20026;-87
2023/03/29 07:20:43;;;;;;;3.83;1.80;;;11.20;79.90;;;;;;4986191;28;20488;-86
2023/03/29 07:23:10;;;;;;;3.30;1.48;;;11.20;79.90;;;;;;4977309;28;20030;-88
2023/03/29 07:25:37;;;;;;;3.20;1.70;;;11.20;79.90;;;;;;4976958;28;20027;-86
2023/03/29 07:28:02;;;;;;;3.67;1.70;;;11.20;79.90;;;;;;4977667;28;20035;-86
2023/03/29 07:30:29;;;;;;;3.80;1.67;;;11.20;80.00;;;;;;4981330;28;20354;-88
2023/03/29 07:32:57;;;;;;;3.63;1.60;;;11.20;79.90;;;;;;4984320;28;20023;-87
2023/03/29 07:35:23;;;;;;;3.25;1.58;;;11.20;79.90;;;;;;4982396;28;20450;-87
2023/03/29 07:37:49;;;;;;;4.50;1.80;;;11.20;79.80;;;;;;4982343;28;20027;-86
2023/03/29 07:40:17;;;;;;;3.15;1.60;;;11.20;79.90;;;;;;4981587;28;20070;-85
2023/03/29 07:42:44;;;;;;;3.70;1.50;;;11.20;79.80;;;;;;4980436;28;20022;-86
2023/03/29 07:45:12;;;;;;;3.28;1.70;;;11.20;79.80;;;;;;4979960;28;20031;-86
2023/03/29 07:47:39;;;;;;;3.67;1.73;;;11.20;79.80;;;;;;4976744;28;20057;-86
2023/03/29 07:50:06;;;;;;;2.97;1.70;;;11.20;79.80;;;;;;4980529;28;20044;-87
2023/03/29 07:52:32;;;;;;;3.05;1.50;;;11.20;79.70;;;;;;4980034;28;20045;-86
2023/03/29 07:54:57;;;;;;;2.63;1.52;;;11.20;79.90;;;;;;4979466;28;20484;-86
2023/03/29 07:57:24;;;;;;;3.55;1.65;;;11.20;79.80;;;;;;4979101;28;20074;-86
2023/03/29 07:59:49;;;;;;;3.33;1.42;;;11.20;79.80;;;;;;4979872;28;20023;-86
2023/03/29 08:02:15;;;;;;;3.78;1.58;;;11.20;79.80;;;;;;4979000;28;20046;-86
2023/03/29 08:04:41;;;;;;;2.65;1.40;;;11.20;79.90;;;;;;4979013;28;20022;-86
2023/03/29 08:07:06;;;;;;;3.00;1.67;;;11.20;80.00;;;;;;4978049;28;20403;-86
2023/03/29 08:09:32;;;;;;;3.50;1.70;;;11.20;80.00;;;;;;4974904;28;20027;-86
2023/03/29 08:11:57;;;;;;;2.58;1.40;;;11.20;79.90;;;;;;4973020;28;20041;-86
2023/03/29 08:14:23;;;;;;;2.85;1.38;;;11.20;79.90;;;;;;4973022;28;20038;-86
2023/03/29 08:16:50;;;;;;;3.67;1.60;;;11.20;80.00;;;;;;4977918;28;20033;-86
2023/03/29 08:19:16;;;;;;;3.38;1.63;;;11.20;80.00;;;;;;4975584;28;20054;-86
2023/03/29 08:21:41;;;;;;;2.95;1.50;;;11.20;80.00;;;;;;4976769;28;20502;-86
2023/03/29 08:24:07;;;;;;;2.95;1.52;;;11.20;80.00;;;;;;4977679;28;20029;-86
2023/03/29 08:26:32;;;;;;;3.35;1.80;;;11.20;80.10;;;;;;4976497;28;20026;-86
2023/03/29 08:28:58;;;;;;;3.05;1.50;;;11.20;80.00;;;;;;4976027;28;20023;-86
2023/03/29 08:31:23;;;;;;;3.08;1.60;;;11.20;80.00;;;;;;4973621;28;20587;-86
2023/03/29 08:33:49;;;;;;;3.35;1.58;;;11.20;80.00;;;;;;4975691;28;20483;-86
2023/03/29 08:36:15;;;;;;;4.22;1.80;;;11.20;80.00;;;;;;4975747;28;20027;-86
2023/03/29 08:38:40;;;;;;;3.45;1.50;;;11.20;80.10;;;;;;4992404;28;20027;-86
2023/03/29 08:41:22;;;;;;;3.08;1.73;;;11.30;80.10;;;;;;4975289;28;20034;-86
2023/03/29 08:44:03;;;;;;;2.90;1.50;;;11.30;80.10;;;;;;4975651;28;20047;-86
2023/03/29 08:47:09;;;;;;;4.25;1.67;;;11.20;80.10;;;;;;4974394;28;20365;-86
2023/03/29 08:49:37;;;;;;;3.28;1.50;;;11.20;80.00;;;;;;4972970;28;20510;-86
2023/03/29 08:52:10;;;;;;;2.83;1.58;;;11.20;80.00;;;;;;4972212;28;20121;-86
2023/03/29 08:54:42;;;;;;;3.38;1.75;;;11.20;80.00;;;;;;4972898;28;20078;-86
2023/03/29 08:57:20;;;;;;;2.15;1.40;;;11.20;80.00;;;;;;4975329;28;20019;-86
2023/03/29 08:59:50;;;;;;;2.75;1.38;;;11.20;80.00;;;;;;4974314;28;20085;-86
2023/03/29 09:02:28;;;;;;;2.38;1.40;;;11.20;80.00;;;;;;4974101;28;20114;-86
2023/03/29 09:04:59;;;;;;;3.00;1.50;;;11.20;80.00;;;;;;4974029;28;20027;-86
2023/03/29 09:07:26;;;;;;;3.88;1.90;;;11.20;80.10;;;;;;4974020;28;20093;-86
2023/03/29 09:09:52;;;;;;;2.97;1.45;;;11.20;80.10;;;;;;4974602;28;20035;-86
2023/03/29 09:12:46;;;;;;;3.22;1.40;;;11.20;80.10;;;;;;4974842;28;20121;-86
2023/03/29 09:15:29;;;;;;;3.45;1.73;;;11.20;80.40;;;;;;4975376;28;20023;-86
2023/03/29 09:18:21;;;;;;;3.78;1.63;;;11.30;80.00;;;;;;4973684;28;20026;-86
2023/03/29 09:21:00;;;;;;;2.80;1.40;;;11.30;80.00;;;;;;4973180;28;20100;-86
2023/03/29 09:23:48;;;;;;;3.30;1.58;;;11.30;80.00;;;;;;4971943;28;20085;-86
2023/03/29 09:26:35;;;;;;;2.90;1.50;;;11.30;80.10;;;;;;4946148;28;20035;-86
2023/03/29 09:29:18;;;;;;;3.47;1.60;;;11.30;80.00;;;;;;4973818;28;20027;-86
2023/03/29 09:31:44;;;;;;;3.05;1.60;;;11.30;80.00;;;;;;4972803;28;20023;-86
2023/03/29 09:34:17;;;;;;;2.40;1.35;;;11.30;80.00;;;;;;4973139;28;20034;-86
2023/03/29 09:36:52;;;;;;;2.33;1.40;;;11.30;80.00;;;;;;4973300;28;20038;-86
2023/03/29 09:39:20;;;;;;;2.80;1.50;;;11.30;80.00;;;;;;4972616;28;20026;-86
2023/03/29 09:41:55;;;;;;;2.55;1.40;;;11.30;79.90;;;;;;4972680;28;20027;-86
2023/03/29 09:44:32;;;;;;;3.45;1.50;;;11.30;80.00;;;;;;4972922;28;20050;-86
2023/03/29 09:47:05;;;;;;;3.83;1.40;;;11.30;80.00;;;;;;4972490;28;20512;-86
2023/03/29 09:49:35;;;;;;;3.05;1.55;;;11.30;80.00;;;;;;4972039;28;20488;-86
2023/03/29 09:52:06;;;;;;;2.53;1.40;;;11.30;80.00;;;;;;4971559;28;20027;-86
2023/03/29 09:54:31;;;;;;;3.65;1.40;;;11.30;80.00;;;;;;4972936;28;20023;-86
2023/03/29 09:56:58;;;;;;;2.53;1.30;;;11.40;80.10;;;;;;4971943;28;20510;-86
2023/03/29 09:59:23;;;;;;;3.35;1.50;;;11.30;80.00;;;;;;4971615;28;20023;-86
2023/03/29 10:01:49;;;;;;;2.85;1.40;;;11.30;80.00;;;;;;4971564;28;20121;-86
2023/03/29 10:04:15;;;;;;;3.33;1.65;;;11.30;80.00;;;;;;4972002;28;20491;-86
2023/03/29 10:06:48;;;;;;;2.80;1.60;;;11.30;80.00;;;;;;4972202;28;20113;-86
2023/03/29 10:09:20;;;;;;;2.50;1.40;;;11.30;80.00;;;;;;4971690;28;20395;-86
2023/03/29 10:11:50;;;;;;;2.75;1.60;;;11.30;80.00;;;;;;4971371;28;20026;-87
2023/03/29 10:14:29;;;;;;;2.63;1.48;;;11.30;80.00;;;;;;4976061;28;20479;-87
2023/03/29 10:16:56;;;;;;;2.58;1.77;;;11.40;80.00;;;;;;4981623;28;20023;-87
2023/03/29 10:19:33;;;;;;;3.15;1.70;;;11.40;80.00;;;;;;4979778;28;20419;-87
2023/03/29 10:22:01;;;;;;;3.50;1.50;;;11.40;80.00;;;;;;4984302;28;20507;-86
2023/03/29 10:24:27;;;;;;;3.22;1.48;;;11.40;80.00;;;;;;4982820;28;20027;-87
2023/03/29 10:27:01;;;;;;;3.70;1.60;;;11.40;80.00;;;;;;4984103;28;20023;-86
2023/03/29 10:29:35;;;;;;;3.17;1.60;;;11.40;80.00;;;;;;4982872;28;20045;-87
2023/03/29 10:32:01;;;;;;;2.60;1.45;;;11.40;80.00;;;;;;4981915;28;20026;-87
2023/03/29 10:34:27;;;;;;;2.83;1.60;;;11.40;80.00;;;;;;4981765;28;20037;-87
2023/03/29 10:36:59;;;;;;;3.05;1.60;;;11.40;80.00;;;;;;4982752;28;20033;-87
2023/03/29 10:39:29;;;;;;;2.42;1.50;;;11.40;80.00;;;;;;4981197;28;20117;-86
2023/03/29 10:41:54;;;;;;;2.75;1.40;;;11.40;80.00;;;;;;4980961;28;20042;-86
2023/03/29 10:44:31;;;;;;;3.05;1.60;;;11.40;80.00;;;;;;4980947;28;20479;-86
2023/03/29 10:47:08;;;;;;;2.58;1.40;;;11.40;80.00;;;;;;4980526;28;20034;-87
2023/03/29 10:49:40;;;;;;;3.30;1.63;;;11.40;80.00;;;;;;4980732;28;20023;-86
2023/03/29 10:52:08;;;;;;;3.42;1.70;;;11.40;80.00;;;;;;4978998;28;20081;-87
2023/03/29 10:54:33;;;;;;;3.25;1.88;;;11.40;80.00;;;;;;4980672;28;20030;-86
2023/03/29 10:57:05;;;;;;;2.70;1.50;;;11.40;80.00;;;;;;4979827;28;20080;-87
2023/03/29 10:59:57;;;;;;;;;;;11.40;80.00;;;;;;4976456;28;20405;-86
2023/03/29 11:02:42;;;;;;;2.30;1.40;;;11.40;80.00;;;;;;4967041;28;19925;-86
2023/03/29 11:05:45;;;;;;;2.35;1.35;;;11.40;80.10;;;;;;4976915;28;20027;-86
2023/03/29 11:08:16;;;;;;;2.63;1.40;;;11.40;80.10;;;;;;4981601;28;20061;-87
2023/03/29 11:10:50;;;;;;;2.88;1.55;;;11.40;80.10;;;;;;4984193;28;20037;-87
2023/03/29 11:13:50;;;;;;;2.70;1.42;;;11.40;80.10;;;;;;4982084;28;20027;-87
2023/03/29 11:16:23;;;;;;;2.58;1.58;;;11.40;80.10;;;;;;4982105;28;20391;-87
2023/03/29 11:19:23;;;;;;;3.20;1.60;;;11.40;80.00;;;;;;4983630;28;20388;-87
2023/03/29 11:22:15;;;;;;;3.03;1.67;;;11.50;79.90;;;;;;4981734;28;20019;-86
2023/03/29 11:25:02;;;;;;;2.80;1.58;;;11.50;79.80;;;;;;4981393;28;20081;-86
2023/03/29 11:27:47;;;;;;;2.95;1.70;;;11.50;79.70;;;;;;4973855;28;20398;-86
2023/03/29 11:30:22;;;;;;;3.50;1.65;;;11.50;79.60;;;;;;4980047;28;20419;-87
2023/03/29 11:33:04;;;;;;;3.22;1.65;;;11.50;79.70;;;;;;4978330;28;20563;-86
2023/03/29 11:35:41;;;;;;;2.70;1.38;;;11.50;79.60;;;;;;4975402;28;20031;-86
2023/03/29 11:38:38;;;;;;;3.60;1.75;;;11.50;79.70;;;;;;4974972;28;20043;-86
2023/03/29 11:41:16;;;;;;;2.33;1.45;;;11.50;79.70;;;;;;4979601;28;20026;-86
2023/03/29 11:43:47;;;;;;;3.03;1.55;;;11.50;79.70;;;;;;4979414;28;20078;-86
2023/03/29 11:46:20;;;;;;;2.53;1.30;;;11.50;79.70;;;;;;4980866;28;20038;-87
2023/03/29 11:48:48;;;;;;;2.47;1.40;;;11.50;79.70;;;;;;4979149;28;20031;-86
2023/03/29 11:51:14;;;;;;;2.90;1.60;;;11.50;79.70;;;;;;4978393;28;20035;-87
2023/03/29 11:54:00;;;;;;;3.05;1.70;;;11.50;79.60;;;;;;4978114;28;20046;-86
2023/03/29 11:56:43;;;;;;;2.88;1.55;;;11.60;79.60;;;;;;4977842;28;20121;-87
2023/03/29 11:59:21;;;;;;;2.28;1.45;;;11.60;79.60;;;;;;4977710;28;20022;-85
2023/03/29 12:02:11;;;;;;;2.50;1.50;;;11.60;79.60;;;;;;4973201;28;20023;-86
2023/03/29 12:04:47;;;;;;;3.22;1.60;;;11.60;79.50;;;;;;4974398;28;20042;-86
2023/03/29 12:07:31;;;;;;;2.80;1.70;;;11.60;79.40;;;;;;4976761;28;20034;-87
2023/03/29 12:10:14;;;;;;;2.83;1.55;;;11.60;79.40;;;;;;4976845;28;20038;-86
2023/03/29 12:12:58;;;;;;;2.70;1.52;;;11.60;79.30;;;;;;4976267;28;20023;-86
2023/03/29 12:15:29;;;;;;;2.40;1.40;;;11.70;79.40;;;;;;4976392;28;20062;-86
2023/03/29 12:18:16;;;;;;;4.00;1.77;;;11.60;79.30;;;;;;4976505;28;20026;-85
2023/03/29 12:20:44;;;;;;;2.58;1.55;;;11.70;79.40;;;;;;4975385;28;20019;-86
2023/03/29 12:23:13;;;;;;;2.42;1.50;;;11.70;79.40;;;;;;4972983;28;20026;-86
2023/03/29 12:26:02;;;;;;;3.42;1.85;;;11.60;79.40;;;;;;4973390;28;20030;-86
2023/03/29 12:28:52;;;;;;;3.03;1.67;;;11.60;79.50;;;;;;4974626;28;20058;-86
2023/03/29 12:31:30;;;;;;;3.25;1.73;;;11.60;79.50;;;;;;4972811;28;20101;-85
2023/03/29 12:34:43;;;;;;;3.35;1.77;;;11.60;79.60;;;;;;4972917;28;20041;-86
2023/03/29 12:37:41;;;;;;;3.25;1.83;;;11.60;79.60;;;;;;4928765;28;20035;-86
2023/03/29 12:40:16;;;;;;;3.45;1.90;;;11.60;79.70;;;;;;4974290;28;20492;-86
2023/03/29 12:43:15;;;;;;;3.92;2.00;;;11.60;79.70;;;;;;4974270;28;20058;-86
2023/03/29 12:45:48;;;;;;;3.75;1.80;;;11.60;79.70;;;;;;4967676;28;20366;-87
2023/03/29 12:48:16;;;;;;;3.22;1.73;;;11.60;79.70;;;;;;4973646;28;20033;-86
2023/03/29 12:50:55;;;;;;;3.13;1.73;;;11.60;79.70;;;;;;4972273;28;20467;-86
2023/03/29 12:53:30;;;;;;;2.75;1.73;;;11.60;79.70;;;;;;4972711;28;20050;-86
2023/03/29 12:56:02;;;;;;;3.17;1.80;;;11.60;79.80;;;;;;4972548;28;20381;-86
2023/03/29 12:58:46;;;;;;;3.28;1.73;;;11.60;79.80;;;;;;4972492;28;20061;-86
2023/03/29 13:01:30;;;;;;;3.67;1.98;;;11.60;79.80;;;;;;4973265;28;20027;-86
2023/03/29 13:03:58;;;;;;;3.45;1.90;;;11.60;79.80;;;;;;4972279;28;20035;-86
2023/03/29 13:06:47;;;;;;;3.63;1.80;;;11.60;79.80;;;;;;4973409;28;20063;-86
2023/03/29 13:09:21;;;;;;;3.03;1.80;;;11.60;79.80;;;;;;4972117;28;20407;-86
2023/03/29 13:11:52;;;;;;;3.72;1.90;;;11.60;79.80;;;;;;4971935;28;20027;-86
2023/03/29 13:14:22;;;;;;;2.75;1.70;;;11.60;79.70;;;;;;4972185;28;20313;-86
2023/03/29 13:16:48;;;;;;;3.38;1.80;;;11.60;79.80;;;;;;4972216;28;20023;-87
2023/03/29 13:19:31;;;;;;;3.05;1.80;;;11.60;79.80;;;;;;4972031;28;20030;-86
2023/03/29 13:22:14;;;;;;;3.13;1.70;;;11.60;79.90;;;;;;4971816;28;20118;-86
2023/03/29 13:24:52;;;;;;;2.78;1.60;;;11.60;79.90;;;;;;4974288;28;20073;-86
2023/03/29 13:27:21;;;;;;;3.20;1.70;;;11.60;80.00;;;;;;4972074;28;20507;-86
2023/03/29 13:30:08;;;;;;;3.28;1.70;;;11.60;80.00;;;;;;4972139;28;20077;-86
2023/03/29 13:32:49;;;;;;;3.10;1.75;;;11.60;80.00;;;;;;4971907;28;20096;-85
2023/03/29 13:35:27;;;;;;;3.35;1.73;;;11.50;80.00;;;;;;4971932;28;20038;-86